Time;durP1;ratioP1;P1;durP2;ratioP2;P2;SDS_P1;SDS_P2;PMS_P1;PMS_P2;Temp;Humidity;BMP_temperature;BMP_pressure;BME280_temperature;BME280_humidity;BME280_pressure;Samples;Min_cycle;Max_cycle;Signal;HPM_P1;HPM_P2
2023/02/06 00:01:29;;;;;;;28.30;7.57;;;;;;;4.90;100.00;104175.34;5115905;28;20051;-69
2023/02/06 00:03:56;;;;;;;34.55;8.20;;;;;;;4.93;100.00;104172.38;5097752;28;20074;-69
2023/02/06 00:06:24;;;;;;;35.50;7.65;;;;;;;4.98;100.00;104178.19;5079040;28;20052;-69
2023/02/06 00:08:52;;;;;;;34.03;7.65;;;;;;;5.00;100.00;104184.25;5111765;27;20067;-69
2023/02/06 00:11:20;;;;;;;30.63;7.28;;;;;;;4.91;100.00;104183.31;5094971;28;20538;-69
2023/02/06 00:13:49;;;;;;;30.27;7.55;;;;;;;4.85;100.00;104177.66;5078432;28;20117;-68
2023/02/06 00:16:25;;;;;;;27.80;7.82;;;;;;;4.84;100.00;104171.41;5115216;28;20039;-69
2023/02/06 00:18:53;;;;;;;;;;;;;;;4.70;100.00;104171.88;5113900;27;20042;-69
2023/02/06 00:21:23;;;;;;;33.63;8.32;;;;;;;4.66;100.00;104173.13;5114700;28;19927;-69
2023/02/06 00:23:54;;;;;;;35.67;7.32;;;;;;;4.68;100.00;104165.75;5111291;28;20036;-69
2023/02/06 00:26:22;;;;;;;31.52;7.95;;;;;;;4.74;100.00;104173.28;5094913;28;20411;-69
2023/02/06 00:28:50;;;;;;;31.77;8.32;;;;;;;4.78;100.00;104176.53;5113147;27;20067;-69
2023/02/06 00:31:18;;;;;;;27.35;6.95;;;;;;;4.80;100.00;104180.78;5098222;28;20048;-70
2023/02/06 00:33:46;;;;;;;33.42;9.00;;;;;;;4.78;100.00;104166.56;5114729;28;20139;-68
2023/02/06 00:36:14;;;;;;;28.88;7.85;;;;;;;4.70;100.00;104166.47;5114666;28;20043;-69
2023/02/06 00:38:41;;;;;;;31.60;7.90;;;;;;;4.68;100.00;104163.88;5112489;27;20396;-69
2023/02/06 00:41:09;;;;;;;32.05;7.97;;;;;;;4.64;100.00;104154.41;5093563;28;20407;-69
2023/02/06 00:43:37;;;;;;;30.60;7.05;;;;;;;4.63;100.00;104158.09;5063938;28;20055;-69
2023/02/06 00:46:05;;;;;;;28.83;7.38;;;;;;;4.70;100.00;104155.66;5115545;28;20067;-66
2023/02/06 00:48:32;;;;;;;30.58;7.72;;;;;;;4.79;100.00;104148.53;5114136;28;20035;-69
2023/02/06 00:51:00;;;;;;;29.23;7.70;;;;;;;4.80;100.00;104147.53;5115416;27;20126;-69
2023/02/06 00:53:28;;;;;;;34.83;8.13;;;;;;;4.77;100.00;104150.53;5114135;28;20040;-68
2023/02/06 00:55:57;;;;;;;29.73;7.35;;;;;;;4.73;100.00;104159.91;5114390;28;20039;-67
2023/02/06 00:58:25;;;;;;;28.42;8.25;;;;;;;4.68;100.00;104163.88;5112839;28;20047;-67
2023/02/06 01:00:53;;;;;;;27.17;7.43;;;;;;;4.68;100.00;104163.88;5107692;27;20138;-68
2023/02/06 01:03:20;;;;;;;29.70;7.60;;;;;;;4.74;100.00;104153.50;5107759;28;20047;-67
2023/02/06 01:05:48;;;;;;;27.17;7.35;;;;;;;4.76;100.00;104162.31;5115424;28;20035;-68
2023/02/06 01:08:16;;;;;;;29.35;6.75;;;;;;;4.78;100.00;104160.31;5115412;28;20058;-67
2023/02/06 01:10:45;;;;;;;25.23;7.00;;;;;;;4.78;100.00;104165.72;5084846;27;20048;-67
2023/02/06 01:13:13;;;;;;;27.25;7.18;;;;;;;4.76;100.00;104162.31;5113763;28;20142;-68
2023/02/06 01:15:41;;;;;;;28.85;7.95;;;;;;;4.75;100.00;104174.97;5065691;28;20079;-67
2023/02/06 01:18:09;;;;;;;24.92;6.88;;;;;;;4.76;100.00;104178.53;5093727;28;20539;-68
2023/02/06 01:20:40;;;;;;;29.30;7.32;;;;;;;4.79;100.00;104178.25;5078742;28;20415;-69
2023/02/06 01:23:07;;;;;;;30.92;7.07;;;;;;;4.82;100.00;104188.75;5110138;27;20067;-69
2023/02/06 01:25:36;;;;;;;25.15;6.70;;;;;;;4.81;100.00;104187.03;5076619;28;20040;-68
2023/02/06 01:28:04;;;;;;;28.73;7.22;;;;;;;4.82;100.00;104184.19;5093498;28;20093;-68
2023/02/06 01:30:32;;;;;;;27.02;7.43;;;;;;;4.81;100.00;104179.81;5084782;28;20039;-68
2023/02/06 01:33:00;;;;;;;27.02;6.95;;;;;;;4.76;100.00;104176.66;5113164;27;20048;-68
2023/02/06 01:35:28;;;;;;;25.92;7.05;;;;;;;4.67;100.00;104175.72;5113756;28;20054;-68
2023/02/06 01:37:56;;;;;;;28.08;7.38;;;;;;;4.61;100.00;104176.28;5114426;28;20078;-68
2023/02/06 01:40:24;;;;;;;27.63;7.72;;;;;;;4.56;100.00;104181.25;5113465;28;20126;-67
2023/02/06 01:42:51;;;;;;;28.23;7.25;;;;;;;4.58;100.00;104184.69;5112941;28;20043;-67
2023/02/06 01:45:25;;;;;;;29.23;7.85;;;;;;;4.59;100.00;104189.06;5084222;28;20384;-67
2023/02/06 01:48:00;;;;;;;36.50;8.30;;;;;;;4.58;100.00;104195.47;5094477;28;20119;-67
2023/02/06 01:50:29;;;;;;;26.73;7.30;;;;;;;4.55;100.00;104193.06;5073051;28;20119;-67
2023/02/06 01:52:57;;;;;;;28.90;7.70;;;;;;;4.50;100.00;104187.25;5097800;28;20107;-66
2023/02/06 01:55:24;;;;;;;32.00;7.78;;;;;;;4.47;100.00;104190.22;5094070;28;20511;-67
2023/02/06 01:57:52;;;;;;;28.63;7.97;;;;;;;4.44;100.00;104185.97;5110665;27;20055;-66
2023/02/06 02:00:20;;;;;;;28.65;7.10;;;;;;;4.43;100.00;104189.69;5094377;28;20090;-66
2023/02/06 02:02:48;;;;;;;24.95;7.75;;;;;;;4.43;100.00;104186.13;5098391;28;20040;-68
2023/02/06 02:05:18;;;;;;;25.48;6.82;;;;;;;4.46;100.00;104183.97;5086970;28;20058;-65
2023/02/06 02:08:15;;;;;;;33.00;7.35;;;;;;;4.45;100.00;104182.28;5103186;28;20050;-67
2023/02/06 02:10:43;;;;;;;27.38;6.85;;;;;;;4.48;100.00;104186.56;5108552;28;20044;-66
2023/02/06 02:13:11;;;;;;;28.63;7.63;;;;;;;4.53;100.00;104194.22;5113012;28;20123;-67
2023/02/06 02:15:53;;;;;;;32.03;7.35;;;;;;;4.58;100.00;104189.22;5112092;28;20454;-67
2023/02/06 02:18:59;;;;;;;39.83;7.63;;;;;;;4.61;100.00;104192.47;5113534;28;20121;-67
2023/02/06 02:22:17;;;;;;;26.92;7.15;;;;;;;4.62;100.00;104187.97;5039718;28;20500;-68
2023/02/06 02:24:50;;;;;;;27.98;7.38;;;;;;;4.64;100.00;104181.41;4963053;28;20049;-67
2023/02/06 02:27:24;;;;;;;29.00;7.20;;;;;;;4.66;100.00;104175.84;4995772;28;20530;-69
2023/02/06 02:30:31;;;;;;;29.45;7.18;;;;;;;4.69;100.00;104168.31;5067488;28;20056;-62
2023/02/06 02:33:20;;;;;;;27.33;7.30;;;;;;;4.73;100.00;104165.31;5090879;28;20059;-63
2023/02/06 02:35:51;;;;;;;27.05;7.13;;;;;;;4.72;100.00;104160.91;5119371;28;20478;-66
2023/02/06 02:38:27;;;;;;;24.48;6.10;;;;;;;4.69;100.00;104168.31;5117227;28;20047;-65
2023/02/06 02:41:06;;;;;;;24.65;6.80;;;;;;;4.67;100.00;104167.59;5129387;28;20048;-60
2023/02/06 02:44:05;;;;;;;26.95;7.07;;;;;;;4.65;100.00;104164.19;5127458;28;20461;-68
2023/02/06 02:46:47;;;;;;;27.05;7.30;;;;;;;4.67;100.00;104162.19;5096968;28;20059;-68
2023/02/06 02:49:18;;;;;;;29.25;7.50;;;;;;;4.69;100.00;104157.50;5092600;28;20484;-67
2023/02/06 02:51:50;;;;;;;32.58;7.97;;;;;;;4.71;100.00;104162.75;5092219;28;20048;-67
2023/02/06 02:54:18;;;;;;;25.08;6.65;;;;;;;4.71;100.00;104165.44;5128029;27;20128;-68
2023/02/06 02:56:46;;;;;;;30.15;7.47;;;;;;;4.71;100.00;104154.66;5120305;27;20130;-66
2023/02/06 02:59:28;;;;;;;34.15;6.72;;;;;;;4.65;100.00;104150.69;5083813;28;20103;-67
2023/02/06 03:02:02;;;;;;;26.55;6.65;;;;;;;4.60;100.00;104149.44;5063317;28;20117;-67
2023/02/06 03:04:34;;;;;;;28.95;6.72;;;;;;;4.53;100.00;104154.56;5096228;28;20047;-67
2023/02/06 03:07:16;;;;;;;29.20;6.80;;;;;;;4.49;100.00;104150.44;5099472;28;20051;-67
2023/02/06 03:09:56;;;;;;;28.95;6.47;;;;;;;4.47;100.00;104152.44;5099953;28;20051;-67
2023/02/06 03:12:42;;;;;;;22.25;6.18;;;;;;;4.47;100.00;104152.44;5097623;28;20044;-67
2023/02/06 03:15:29;;;;;;;23.87;6.50;;;;;;;4.53;100.00;104141.06;5106452;28;20067;-67
2023/02/06 03:18:10;;;;;;;25.80;6.18;;;;;;;4.60;100.00;104134.06;5115320;27;20399;-67
2023/02/06 03:20:42;;;;;;;21.80;6.18;;;;;;;4.62;100.00;104151.00;5082382;28;20134;-67
2023/02/06 03:23:13;;;;;;;28.58;7.35;;;;;;;4.60;100.00;104139.47;5099033;28;20043;-67
2023/02/06 03:25:43;;;;;;;24.35;6.78;;;;;;;4.52;100.00;104144.75;5116246;28;20043;-67
2023/02/06 03:28:18;;;;;;;21.38;6.22;;;;;;;4.43;100.00;104159.13;5097667;28;20509;-67
2023/02/06 03:30:48;;;;;;;29.73;7.82;;;;;;;4.44;100.00;104148.16;5106459;27;20070;-66
2023/02/06 03:33:20;;;;;;;24.08;6.70;;;;;;;4.49;100.00;104142.34;5095553;28;20052;-66
2023/02/06 03:35:48;;;;;;;27.48;6.85;;;;;;;4.55;100.00;104149.88;5096704;28;20048;-67
2023/02/06 03:38:16;;;;;;;22.98;6.88;;;;;;;4.60;100.00;104152.97;5094969;28;20487;-67
2023/02/06 03:40:47;;;;;;;28.38;6.53;;;;;;;4.58;100.00;104141.47;5115882;28;20044;-66
2023/02/06 03:43:17;;;;;;;23.15;6.85;;;;;;;4.57;100.00;104142.47;5114997;27;20048;-67
2023/02/06 03:45:48;;;;;;;24.33;6.72;;;;;;;4.58;100.00;104143.31;5099336;28;20054;-66
2023/02/06 03:48:32;;;;;;;23.50;6.30;;;;;;;4.61;100.00;104143.88;5098373;28;20070;-67
2023/02/06 03:51:05;;;;;;;24.70;6.63;;;;;;;4.64;100.00;104140.03;5115842;28;20048;-67
2023/02/06 03:53:35;;;;;;;26.98;6.68;;;;;;;4.62;100.00;104140.19;5117046;28;20044;-66
2023/02/06 03:56:09;;;;;;;28.27;6.97;;;;;;;4.60;100.00;104142.19;5101364;28;20041;-67
2023/02/06 03:58:37;;;;;;;26.65;6.57;;;;;;;4.56;100.00;104135.34;5095018;28;20385;-67
2023/02/06 04:01:06;;;;;;;29.08;6.70;;;;;;;4.52;100.00;104142.03;5112823;27;20050;-67
2023/02/06 04:03:34;;;;;;;27.10;6.70;;;;;;;4.48;100.00;104138.78;5116756;28;20043;-67
2023/02/06 04:06:02;;;;;;;24.95;6.22;;;;;;;4.49;100.00;104134.25;5116137;28;20040;-67
2023/02/06 04:08:29;;;;;;;27.42;6.97;;;;;;;4.53;100.00;104135.66;5112562;27;20047;-67
2023/02/06 04:10:57;;;;;;;27.45;7.05;;;;;;;4.56;100.00;104140.75;5116753;28;20126;-67
2023/02/06 04:13:26;;;;;;;23.30;6.95;;;;;;;4.53;100.00;104146.47;5115667;28;20035;-67
2023/02/06 04:15:55;;;;;;;23.83;6.10;;;;;;;4.49;100.00;104145.03;5099132;28;20413;-69
2023/02/06 04:18:25;;;;;;;30.38;7.28;;;;;;;4.49;100.00;104145.03;5094787;28;20044;-67
2023/02/06 04:20:53;;;;;;;28.42;7.25;;;;;;;4.47;100.00;104144.31;5110241;27;20071;-69
2023/02/06 04:23:23;;;;;;;22.73;6.70;;;;;;;4.51;100.00;104142.19;5116016;28;20077;-67
2023/02/06 04:25:51;;;;;;;22.50;5.88;;;;;;;4.54;100.00;104137.34;5116110;28;20035;-66
2023/02/06 04:28:18;;;;;;;25.92;6.90;;;;;;;4.53;100.00;104141.06;5113855;28;20058;-67
2023/02/06 04:30:47;;;;;;;29.42;6.57;;;;;;;4.51;100.00;104145.75;5115087;28;20051;-66
2023/02/06 04:33:15;;;;;;;23.90;6.63;;;;;;;4.52;100.00;104143.88;5114312;27;20048;-66
2023/02/06 04:35:42;;;;;;;26.35;6.57;;;;;;;4.52;100.00;104139.34;5114704;28;20479;-66
2023/02/06 04:38:10;;;;;;;25.55;6.38;;;;;;;4.50;100.00;104130.56;5114479;28;20055;-66
2023/02/06 04:40:37;;;;;;;28.75;6.85;;;;;;;4.49;100.00;104118.88;5117304;28;20050;-67
2023/02/06 04:43:05;;;;;;;19.45;6.35;;;;;;;4.47;100.00;104120.91;5126207;28;20047;-67
2023/02/06 04:45:33;;;;;;;24.27;6.32;;;;;;;4.48;100.00;104121.75;5116356;27;20036;-67
2023/02/06 04:48:01;;;;;;;20.85;6.07;;;;;;;4.49;100.00;104112.63;5118625;28;20054;-67
2023/02/06 04:50:30;;;;;;;24.30;6.28;;;;;;;4.45;100.00;104116.66;5127392;27;20055;-67
2023/02/06 04:52:58;;;;;;;22.90;6.05;;;;;;;4.40;100.00;104124.31;5130553;28;20051;-67
2023/02/06 04:55:26;;;;;;;23.33;6.53;;;;;;;4.37;100.00;104130.00;5116547;28;20498;-66
2023/02/06 04:57:55;;;;;;;20.88;6.47;;;;;;;4.37;100.00;104135.41;5117484;27;20048;-67
2023/02/06 05:00:23;;;;;;;23.25;6.88;;;;;;;4.36;100.00;104139.09;5096531;28;20083;-67
2023/02/06 05:02:51;;;;;;;29.30;7.40;;;;;;;4.26;100.00;104131.88;5076530;28;20151;-68
2023/02/06 05:05:18;;;;;;;25.77;6.55;;;;;;;4.23;100.00;104129.47;5094380;28;20064;-67
2023/02/06 05:07:46;;;;;;;22.83;6.18;;;;;;;4.24;100.00;104131.16;5093270;28;20040;-66
2023/02/06 05:10:14;;;;;;;19.88;6.00;;;;;;;4.32;100.00;104126.88;5107388;27;20500;-66
2023/02/06 05:12:42;;;;;;;24.17;6.10;;;;;;;4.37;100.00;104130.00;5115354;28;20045;-66
2023/02/06 05:15:10;;;;;;;19.85;5.90;;;;;;;4.37;100.00;104130.00;5093784;28;20058;-67
2023/02/06 05:17:37;;;;;;;21.30;6.55;;;;;;;4.39;100.00;104139.66;5094027;28;20052;-67
2023/02/06 05:20:06;;;;;;;22.65;6.15;;;;;;;4.39;100.00;104133.41;5114154;28;20100;-66
2023/02/06 05:22:33;;;;;;;22.48;6.15;;;;;;;4.36;100.00;104141.81;5114331;28;20107;-65
2023/02/06 05:25:01;;;;;;;22.27;6.63;;;;;;;4.35;100.00;104146.34;5092901;28;20040;-67
2023/02/06 05:27:29;;;;;;;24.63;6.28;;;;;;;4.33;100.00;104142.06;5099259;27;20128;-66
2023/02/06 05:29:56;;;;;;;21.80;6.35;;;;;;;4.33;100.00;104136.69;5088229;28;20056;-66
2023/02/06 05:32:24;;;;;;;22.05;6.57;;;;;;;4.32;100.00;104140.38;5077206;28;20051;-68
2023/02/06 05:34:52;;;;;;;20.83;6.45;;;;;;;4.24;100.00;104141.97;5108143;27;20059;-67
2023/02/06 05:37:19;;;;;;;25.48;6.57;;;;;;;4.16;100.00;104147.22;5083046;28;20044;-66
2023/02/06 05:39:47;;;;;;;24.67;7.10;;;;;;;4.10;100.00;104155.88;5092718;28;20051;-67
2023/02/06 05:42:14;;;;;;;20.48;6.45;;;;;;;4.13;100.00;104160.16;5093434;28;20048;-67
2023/02/06 05:44:42;;;;;;;22.50;6.80;;;;;;;4.16;100.00;104154.44;5064499;28;20044;-65
2023/02/06 05:47:10;;;;;;;22.73;6.20;;;;;;;4.17;100.00;104158.88;5094304;28;20052;-66
2023/02/06 05:49:37;;;;;;;21.58;6.55;;;;;;;4.13;100.00;104169.09;5110614;28;20126;-67
2023/02/06 05:52:05;;;;;;;23.63;6.57;;;;;;;4.10;100.00;104166.69;5113242;28;20504;-66
2023/02/06 05:54:33;;;;;;;23.35;6.22;;;;;;;4.08;100.00;104157.88;5092768;28;20372;-66
2023/02/06 05:57:01;;;;;;;23.15;6.00;;;;;;;4.06;100.00;104159.84;5094357;28;20048;-66
2023/02/06 05:59:28;;;;;;;21.85;6.10;;;;;;;4.05;100.00;104164.41;5113453;28;20061;-65
2023/02/06 06:01:56;;;;;;;19.70;6.00;;;;;;;4.10;100.00;104166.69;5096267;28;20052;-67
2023/02/06 06:04:24;;;;;;;24.90;6.07;;;;;;;4.16;100.00;104170.66;5113156;28;20047;-66
2023/02/06 06:06:52;;;;;;;23.02;5.60;;;;;;;4.17;100.00;104159.72;5078358;28;20047;-67
2023/02/06 06:09:19;;;;;;;20.23;5.53;;;;;;;4.18;100.00;104158.72;5098113;28;20068;-67
2023/02/06 06:11:47;;;;;;;24.63;6.65;;;;;;;4.18;100.00;104161.41;5097329;28;20500;-67
2023/02/06 06:14:15;;;;;;;21.20;5.88;;;;;;;4.20;100.00;104156.72;5106043;28;20050;-65
2023/02/06 06:16:42;;;;;;;24.08;6.20;;;;;;;4.22;100.00;104160.13;5118827;28;20044;-65
2023/02/06 06:19:10;;;;;;;27.48;6.88;;;;;;;4.20;100.00;104155.88;5104768;27;20111;-65
2023/02/06 06:21:38;;;;;;;16.98;6.00;;;;;;;4.13;100.00;104165.53;5132745;27;20098;-65
2023/02/06 06:24:05;;;;;;;21.77;5.95;;;;;;;4.09;100.00;104165.00;5130406;28;20558;-66
2023/02/06 06:26:33;;;;;;;21.98;6.10;;;;;;;4.10;100.00;104161.28;5114789;28;20044;-65
2023/02/06 06:29:01;;;;;;;20.85;6.28;;;;;;;4.11;100.00;104165.66;5089395;28;20119;-64
2023/02/06 06:31:29;;;;;;;23.30;5.85;;;;;;;4.13;100.00;104170.94;5130398;28;20055;-63
2023/02/06 06:33:57;;;;;;;22.90;6.57;;;;;;;4.12;100.00;104174.66;5146708;28;20050;-65
2023/02/06 06:36:24;;;;;;;28.27;7.25;;;;;;;4.13;100.00;104182.56;5127079;28;20100;-66
2023/02/06 06:38:52;;;;;;;33.00;8.13;;;;;;;4.14;100.00;104176.19;5114267;28;20062;-66
2023/02/06 06:41:22;;;;;;;28.88;7.95;;;;;;;4.13;100.00;104171.78;5112564;28;20047;-68
2023/02/06 06:43:50;;;;;;;27.45;6.82;;;;;;;4.08;100.00;104167.81;5112576;28;20069;-67
2023/02/06 06:46:18;;;;;;;26.20;7.35;;;;;;;4.01;100.00;104162.13;5096242;28;20067;-68
2023/02/06 06:48:45;;;;;;;29.13;7.63;;;;;;;3.95;100.00;104162.72;5107661;28;20468;-65
2023/02/06 06:51:13;;;;;;;35.53;8.55;;;;;;;3.91;100.00;104172.06;5112747;28;20190;-67
2023/02/06 06:53:41;;;;;;;29.95;7.80;;;;;;;3.90;100.00;104167.69;5113078;28;20047;-66
2023/02/06 06:56:12;;;;;;;29.92;7.35;;;;;;;3.90;100.00;104159.59;5113374;28;20047;-67
2023/02/06 06:58:40;;;;;;;26.58;7.75;;;;;;;3.96;100.00;104156.31;5108885;28;20410;-66
2023/02/06 07:01:09;;;;;;;25.15;7.22;;;;;;;4.00;100.00;104155.03;5094474;28;20048;-66
2023/02/06 07:03:37;;;;;;;26.48;7.50;;;;;;;4.01;100.00;104151.34;4377021;28;10000617;-66
2023/02/06 07:06:05;;;;;;;22.90;6.85;;;;;;;3.99;100.00;104153.31;5088696;28;20768;-66
2023/02/06 07:08:33;;;;;;;25.80;7.72;;;;;;;3.98;100.00;104154.31;5104134;28;20122;-66
2023/02/06 07:11:00;;;;;;;27.23;7.43;;;;;;;3.95;100.00;104143.81;5110029;28;20451;-64
2023/02/06 07:13:28;;;;;;;23.83;7.30;;;;;;;3.95;100.00;104141.13;5108860;28;20407;-66
2023/02/06 07:15:56;;;;;;;25.60;7.15;;;;;;;3.92;100.00;104133.28;5109151;28;20047;-65
2023/02/06 07:18:23;;;;;;;23.17;6.80;;;;;;;3.95;100.00;104141.13;5099838;28;20043;-65
2023/02/06 07:20:52;;;;;;;21.70;6.97;;;;;;;3.96;100.00;104142.81;5109332;28;20066;-65
2023/02/06 07:23:19;;;;;;;24.42;6.78;;;;;;;3.96;100.00;104143.66;5110898;28;20074;-65
2023/02/06 07:25:47;;;;;;;32.25;9.32;;;;;;;3.94;100.00;104139.41;5112581;28;20471;-64
2023/02/06 07:28:15;;;;;;;33.25;8.73;;;;;;;3.84;100.00;104134.84;5108846;28;20044;-66
2023/02/06 07:30:44;;;;;;;30.70;8.32;;;;;;;3.77;100.00;104127.47;5109862;28;20071;-65
2023/02/06 07:33:12;;;;;;;32.38;8.70;;;;;;;3.75;100.00;104133.03;5103933;28;20077;-65
2023/02/06 07:35:42;;;;;;;25.55;8.23;;;;;;;3.67;100.00;104130.16;5113488;28;20054;-65
2023/02/06 07:38:10;;;;;;;28.17;8.05;;;;;;;3.61;100.00;104120.81;5092165;28;20047;-65
2023/02/06 07:40:37;;;;;;;34.92;8.02;;;;;;;3.61;100.00;104119.97;5108050;28;20050;-65
2023/02/06 07:43:12;;;;;;;31.63;7.90;;;;;;;3.65;100.00;104117.81;5117404;28;20445;-65
2023/02/06 07:45:40;;;;;;;25.25;7.45;;;;;;;3.66;100.00;104119.53;5118353;28;20127;-65
2023/02/06 07:48:08;;;;;;;25.35;6.72;;;;;;;3.74;100.00;104123.22;5084018;28;20056;-66
2023/02/06 07:50:36;;;;;;;25.90;6.80;;;;;;;3.78;100.00;104113.88;5095993;28;20048;-65
2023/02/06 07:53:03;;;;;;;27.27;6.75;;;;;;;3.81;100.00;104108.19;5078188;28;20048;-66
2023/02/06 07:55:31;;;;;;;23.73;6.65;;;;;;;3.82;100.00;104099.09;5096510;28;20399;-65
2023/02/06 07:57:59;;;;;;;26.33;7.25;;;;;;;3.81;100.00;104102.78;5111875;28;20543;-66
2023/02/06 08:00:26;;;;;;;23.95;6.55;;;;;;;3.83;100.00;104089.16;5103605;27;20058;-65
2023/02/06 08:02:54;;;;;;;23.88;6.68;;;;;;;3.84;100.00;104085.47;5099276;28;20122;-66
2023/02/06 08:05:22;;;;;;;25.33;6.68;;;;;;;3.90;100.00;104084.06;5098507;28;20077;-66
2023/02/06 08:07:50;;;;;;;24.90;6.65;;;;;;;3.96;100.00;104081.63;5083202;28;20093;-66
2023/02/06 08:10:18;;;;;;;28.77;7.00;;;;;;;4.01;100.00;104092.81;5109611;27;20040;-65
2023/02/06 08:12:46;;;;;;;26.40;6.72;;;;;;;4.08;100.00;104087.72;5115323;28;20043;-66
2023/02/06 08:15:13;;;;;;;26.80;7.43;;;;;;;4.11;100.00;104081.19;5114987;28;20039;-66
2023/02/06 08:17:41;;;;;;;25.48;7.47;;;;;;;4.09;100.00;104077.75;5078325;28;20480;-66
2023/02/06 08:20:10;;;;;;;28.75;7.20;;;;;;;4.07;100.00;104075.22;5098533;28;20052;-66
2023/02/06 08:22:38;;;;;;;28.77;7.20;;;;;;;4.13;100.00;104079.19;5094250;28;20040;-66
2023/02/06 08:25:06;;;;;;;27.90;7.65;;;;;;;4.11;100.00;104084.72;5114139;28;20054;-65
2023/02/06 08:27:34;;;;;;;27.42;7.63;;;;;;;4.07;100.00;104075.22;5084579;28;20499;-65
2023/02/06 08:30:02;;;;;;;23.55;7.20;;;;;;;4.01;100.00;104075.78;5098178;28;20607;-65
2023/02/06 08:32:34;;;;;;;26.73;7.30;;;;;;;3.98;100.00;104068.84;5079986;28;20420;-64
2023/02/06 08:35:02;;;;;;;23.95;7.40;;;;;;;4.04;100.00;104060.19;5078204;28;20500;-68
2023/02/06 08:37:31;;;;;;;25.75;8.32;;;;;;;4.07;100.00;104074.38;5094215;28;20377;-68
2023/02/06 08:39:58;;;;;;;27.85;10.60;;;;;;;4.06;100.00;104065.41;5115001;28;20051;-64
2023/02/06 08:42:26;;;;;;;28.95;12.68;;;;;;;4.02;100.00;104061.31;5116036;27;20126;-65
2023/02/06 08:44:54;;;;;;;25.77;8.43;;;;;;;3.96;100.00;104051.09;5116180;28;20051;-64
2023/02/06 08:47:22;;;;;;;23.50;7.68;;;;;;;4.01;100.00;104051.50;5099777;27;20058;-66
2023/02/06 08:49:50;;;;;;;21.85;6.85;;;;;;;4.08;100.00;104058.03;5095838;28;20055;-65
2023/02/06 08:52:18;;;;;;;22.63;6.72;;;;;;;4.11;100.00;104049.63;5094288;28;20052;-65
2023/02/06 08:54:45;;;;;;;19.92;6.50;;;;;;;4.14;100.00;104053.91;5095803;28;20058;-65
2023/02/06 08:57:13;;;;;;;19.38;5.75;;;;;;;4.16;100.00;104060.00;5096811;28;20059;-64
2023/02/06 08:59:43;;;;;;;20.38;7.00;;;;;;;4.18;100.00;104041.81;5113832;28;20073;-66
2023/02/06 09:02:11;;;;;;;13.82;5.57;;;;;;;4.20;100.00;104037.13;5114421;28;20043;-65
2023/02/06 09:04:41;;;;;;;12.80;4.93;;;;;;;4.21;100.00;104039.69;5116054;28;20043;-65
2023/02/06 09:07:09;;;;;;;13.18;5.10;;;;;;;4.21;100.00;104041.53;5082175;28;20163;-65
2023/02/06 09:09:36;;;;;;;15.23;5.82;;;;;;;4.22;100.00;104035.97;5094361;28;20055;-64
2023/02/06 09:12:04;;;;;;;15.60;5.45;;;;;;;4.23;100.00;104053.91;5077376;28;20407;-65
2023/02/06 09:14:34;;;;;;;14.25;5.82;;;;;;;4.23;100.00;104053.03;5093952;28;20434;-64
2023/02/06 09:17:02;;;;;;;12.30;5.50;;;;;;;4.24;100.00;104065.53;5115695;28;20082;-65
2023/02/06 09:19:29;;;;;;;23.80;6.90;;;;;;;4.24;100.00;104058.28;5114296;28;20079;-65
2023/02/06 09:21:57;;;;;;;13.98;5.75;;;;;;;4.25;100.00;104054.56;5114102;28;20054;-65
2023/02/06 09:24:26;;;;;;;13.50;6.32;;;;;;;4.29;100.00;104057.00;5114331;28;20039;-65
2023/02/06 09:26:53;;;;;;;16.75;6.57;;;;;;;4.29;100.00;104051.59;5112543;28;20055;-65
2023/02/06 09:29:31;;;;;;;16.10;6.10;;;;;;;4.33;100.00;104061.09;5115032;28;20429;-65
2023/02/06 09:31:59;;;;;;;20.38;6.55;;;;;;;4.37;100.00;104059.81;5097438;28;20384;-65
2023/02/06 09:34:27;;;;;;;15.68;6.13;;;;;;;4.41;100.00;104072.03;5112755;28;20060;-64
2023/02/06 09:36:55;;;;;;;15.63;6.20;;;;;;;4.46;100.00;104078.69;5094380;28;20380;-63
2023/02/06 09:39:24;;;;;;;18.20;6.78;;;;;;;4.47;100.00;104082.22;5093264;28;20136;-64
2023/02/06 09:41:54;;;;;;;21.88;7.18;;;;;;;4.46;100.00;104084.06;5076719;28;20082;-63
2023/02/06 09:44:36;;;;;;;18.42;6.55;;;;;;;4.54;100.00;104088.75;5093625;28;20044;-65
2023/02/06 09:47:26;;;;;;;19.15;6.38;;;;;;;4.56;100.00;104084.03;5095226;28;20451;-64
2023/02/06 09:50:01;;;;;;;18.33;6.80;;;;;;;4.60;100.00;104088.16;5093601;28;20049;-64
2023/02/06 09:52:41;;;;;;;20.65;7.07;;;;;;;4.62;100.00;104075.38;5093029;28;20051;-64
2023/02/06 09:55:30;;;;;;;16.60;6.18;;;;;;;4.68;100.00;104079.31;5102872;28;20050;-64
2023/02/06 09:58:29;;;;;;;20.65;6.93;;;;;;;4.70;100.00;104082.72;5114930;28;20043;-64
2023/02/06 10:01:09;;;;;;;23.52;7.05;;;;;;;4.75;100.00;104085.81;5114495;28;20058;-64
2023/02/06 10:03:55;;;;;;;24.88;7.35;;;;;;;4.80;100.00;104086.22;5114438;28;20463;-64
2023/02/06 10:06:40;;;;;;;27.15;6.78;;;;;;;4.80;100.00;104088.94;5117208;28;20043;-64
2023/02/06 10:09:28;;;;;;;22.85;6.50;;;;;;;4.79;100.00;104092.66;5122466;28;20107;-64
2023/02/06 10:11:59;;;;;;;23.05;6.22;;;;;;;4.83;100.00;104093.19;5090934;28;20044;-63
2023/02/06 10:14:38;;;;;;;24.77;6.50;;;;;;;4.88;100.00;104099.84;5129050;28;20103;-60
2023/02/06 10:17:15;;;;;;;21.42;6.05;;;;;;;4.94;100.00;104095.69;5126077;28;20130;-63
2023/02/06 10:20:03;;;;;;;26.27;7.10;;;;;;;4.98;100.00;104102.53;5123547;28;20079;-64
2023/02/06 10:22:42;;;;;;;26.80;6.38;;;;;;;4.93;100.00;104088.59;5129736;28;20054;-59
2023/02/06 10:25:31;;;;;;;22.05;5.97;;;;;;;4.98;100.00;104091.72;5103025;28;20052;-63
2023/02/06 10:28:09;;;;;;;18.95;6.25;;;;;;;5.03;100.00;104104.78;5094809;28;20060;-65
2023/02/06 10:31:06;;;;;;;21.38;6.13;;;;;;;5.04;100.00;104106.47;5077327;28;20051;-64
2023/02/06 10:33:49;;;;;;;22.20;5.85;;;;;;;5.02;100.00;104114.72;5093601;28;20408;-66
2023/02/06 10:36:24;;;;;;;20.05;5.90;;;;;;;5.07;100.00;104103.44;5069892;28;20056;-64
2023/02/06 10:39:23;;;;;;;23.60;6.15;;;;;;;5.10;100.00;104101.31;5076397;28;20134;-64
2023/02/06 10:42:13;;;;;;;26.35;6.47;;;;;;;5.12;100.00;104099.31;5093838;28;20083;-65
2023/02/06 10:44:57;;;;;;;21.80;6.00;;;;;;;5.13;100.00;104090.19;5077786;28;20430;-65
2023/02/06 10:47:53;;;;;;;26.52;6.65;;;;;;;5.20;100.00;104095.84;5093535;28;20093;-65
2023/02/06 10:50:43;;;;;;;23.92;6.30;;;;;;;5.23;100.00;104092.84;5092774;28;20079;-64
2023/02/06 10:53:36;;;;;;;30.10;6.55;;;;;;;5.26;100.00;104084.41;5092094;28;20046;-64
2023/02/06 10:56:13;;;;;;;29.00;6.60;;;;;;;5.37;100.00;104072.53;5092400;28;20411;-66
2023/02/06 10:58:47;;;;;;;25.42;6.22;;;;;;;5.35;100.00;104074.56;5111422;28;20043;-66
2023/02/06 11:01:15;;;;;;;25.35;5.63;;;;;;;5.31;100.00;104076.69;5096220;28;20130;-65
2023/02/06 11:04:01;;;;;;;26.15;6.57;;;;;;;5.36;100.00;104080.81;5109515;28;20043;-65
2023/02/06 11:06:29;;;;;;;26.20;5.93;;;;;;;5.36;100.00;104073.53;5093670;28;20036;-64
2023/02/06 11:08:57;;;;;;;29.35;6.32;;;;;;;5.39;100.00;104075.06;5113015;28;20047;-64
2023/02/06 11:11:30;;;;;;;26.83;6.10;;;;;;;5.40;100.00;104077.63;5112932;28;20159;-63
2023/02/06 11:14:26;;;;;;;23.80;5.70;;;;;;;5.41;100.00;104075.78;5112931;28;20051;-65
2023/02/06 11:16:53;;;;;;;28.00;6.22;;;;;;;5.43;100.00;104081.88;5095847;28;20055;-65
2023/02/06 11:19:35;;;;;;;29.83;6.63;;;;;;;5.42;100.00;104074.78;5116408;27;20096;-64
2023/02/06 11:22:15;;;;;;;32.00;7.05;;;;;;;5.46;100.00;104078.88;5082810;28;20116;-63
2023/02/06 11:25:16;;;;;;;23.05;6.75;;;;;;;5.49;100.00;104071.31;5117696;28;20131;-64
2023/02/06 11:27:44;;;;;;;25.48;6.00;;;;;;;5.54;100.00;104074.41;5099261;27;20055;-64
2023/02/06 11:30:28;;;;;;;27.38;5.97;;;;;;;5.61;100.00;104073.81;5099365;28;20043;-64
2023/02/06 11:32:58;;;;;;;21.70;5.47;;;;;;;5.61;100.00;104066.53;5117638;28;20040;-64
2023/02/06 11:35:37;;;;;;;25.77;5.78;;;;;;;5.63;100.00;104060.94;5102769;28;20056;-62
2023/02/06 11:38:14;;;;;;;21.05;5.32;;;;;;;5.66;100.00;104060.66;5096312;27;20097;-65